Time;durP1;ratioP1;P1;durP2;ratioP2;P2;SDS_P1;SDS_P2;PMS_P1;PMS_P2;Temp;Humidity;BMP_temperature;BMP_pressure;BME280_temperature;BME280_humidity;BME280_pressure;Samples;Min_cycle;Max_cycle;Signal;HPM_P1;HPM_P2
2022/03/13 00:02:05;;;;;;;27.77;12.27;;;3.00;99.90;;;3.88;100.00;98126.16;5022015;28;20543;-76
2022/03/13 00:04:36;;;;;;;28.73;12.33;;;3.00;99.90;;;3.87;100.00;98123.69;5021770;28;20905;-75
2022/03/13 00:07:19;;;;;;;28.30;12.10;;;2.90;99.90;;;3.86;100.00;98125.47;5023086;28;20529;-76
2022/03/13 00:09:51;;;;;;;25.87;10.50;;;2.90;99.90;;;3.82;100.00;98120.69;5022436;28;21078;-76
2022/03/13 00:12:28;;;;;;;20.70;10.37;;;2.90;99.90;;;3.79;100.00;98115.81;5020264;28;20468;-76
2022/03/13 00:15:02;;;;;;;23.50;10.93;;;2.80;99.90;;;3.77;100.00;98113.41;5022597;28;20471;-76
2022/03/13 00:17:35;;;;;;;22.03;11.37;;;2.90;99.90;;;3.74;100.00;98112.88;5021046;28;20475;-76
2022/03/13 00:20:10;;;;;;;27.23;11.80;;;2.90;99.90;;;3.73;100.00;98108.66;5022735;28;20470;-76
2022/03/13 00:22:39;;;;;;;19.00;9.83;;;2.90;99.90;;;3.72;100.00;98114.75;5023457;28;20770;-76
2022/03/13 00:25:10;;;;;;;30.27;11.53;;;2.80;99.90;;;3.66;100.00;98110.16;5025114;28;20971;-76
2022/03/13 00:27:40;;;;;;;23.40;11.10;;;2.80;99.90;;;3.55;100.00;98109.38;5023050;28;20503;-76
2022/03/13 00:30:13;;;;;;;31.10;11.10;;;2.60;99.90;;;3.52;100.00;98114.84;5021286;28;20472;-76
2022/03/13 00:32:44;;;;;;;17.90;9.70;;;2.60;99.90;;;3.53;100.00;98110.50;5024956;28;20864;-76
2022/03/13 00:35:14;;;;;;;23.50;10.40;;;2.60;99.90;;;3.53;100.00;98110.50;5024384;28;20449;-76
2022/03/13 00:37:45;;;;;;;25.90;11.80;;;2.60;99.90;;;3.50;100.00;98106.44;5025012;28;20459;-76
2022/03/13 00:40:14;;;;;;;26.10;10.67;;;2.50;99.90;;;3.47;100.00;98117.03;5023202;28;20727;-76
2022/03/13 00:42:44;;;;;;;23.10;12.00;;;2.40;99.90;;;3.49;100.00;98109.16;5022990;28;20525;-76
2022/03/13 00:45:14;;;;;;;21.67;11.07;;;2.50;99.90;;;3.49;100.00;98107.38;5021159;28;20466;-76
2022/03/13 00:47:44;;;;;;;31.07;11.60;;;2.50;99.90;;;3.38;100.00;98117.06;5022609;28;20552;-76
2022/03/13 00:50:14;;;;;;;26.77;10.57;;;2.60;99.90;;;3.29;100.00;98121.31;5019114;28;20465;-76
2022/03/13 00:52:44;;;;;;;24.40;12.50;;;2.60;99.90;;;3.27;100.00;98124.97;5022542;28;20463;-76
2022/03/13 00:55:15;;;;;;;24.23;9.90;;;2.50;99.90;;;3.29;100.00;98123.06;5022052;28;20834;-76
2022/03/13 00:57:45;;;;;;;23.53;12.23;;;2.50;99.90;;;3.32;100.00;98110.69;5020760;28;20527;-76
2022/03/13 01:00:18;;;;;;;19.73;10.20;;;2.50;99.90;;;3.34;100.00;98116.53;5020276;28;20878;-76
2022/03/13 01:02:50;;;;;;;20.07;9.90;;;2.50;99.90;;;3.35;100.00;98113.00;5022862;28;20492;-76
2022/03/13 01:05:23;;;;;;;19.17;8.83;;;2.50;99.90;;;3.30;100.00;98115.16;5019478;28;20470;-75
2022/03/13 01:07:55;;;;;;;22.53;10.23;;;2.50;99.90;;;3.32;100.00;98113.28;5019153;28;20531;-76
2022/03/13 01:10:26;;;;;;;18.67;10.20;;;2.50;99.90;;;3.31;100.00;98106.47;5021212;28;21001;-76
2022/03/13 01:12:56;;;;;;;17.17;9.90;;;2.50;99.90;;;3.27;100.00;98106.88;5021551;28;20463;-76
2022/03/13 01:15:27;;;;;;;19.10;10.80;;;2.50;99.90;;;3.31;100.00;98106.47;5020845;28;20460;-76
2022/03/13 01:17:59;;;;;;;15.30;8.47;;;2.50;99.90;;;3.35;100.00;98094.91;5022790;28;20550;-76
2022/03/13 01:20:29;;;;;;;16.67;9.60;;;2.50;99.90;;;3.39;100.00;98096.25;5019413;28;20477;-76
2022/03/13 01:22:59;;;;;;;16.23;8.77;;;2.50;99.90;;;3.40;100.00;98094.50;5023002;28;20467;-76
2022/03/13 01:25:29;;;;;;;13.80;8.23;;;2.50;99.90;;;3.31;100.00;98106.47;5022237;28;20458;-76
2022/03/13 01:28:00;;;;;;;18.43;10.27;;;2.60;99.90;;;3.25;100.00;98104.44;5020168;28;20501;-76
2022/03/13 01:30:30;;;;;;;17.53;9.87;;;2.60;99.90;;;3.26;100.00;98097.53;5021029;28;20470;-76
2022/03/13 01:33:02;;;;;;;13.90;9.03;;;2.50;99.90;;;3.26;100.00;98093.16;5018968;28;20561;-76
2022/03/13 01:35:32;;;;;;;18.73;8.87;;;2.50;99.90;;;3.22;100.00;98086.66;5020760;28;20467;-76
2022/03/13 01:38:04;;;;;;;18.67;9.50;;;2.50;99.90;;;3.23;100.00;98087.47;5020547;28;20961;-76
2022/03/13 01:40:34;;;;;;;17.13;7.97;;;2.50;99.90;;;3.25;100.00;98083.78;5020122;28;20466;-76
2022/03/13 01:43:04;;;;;;;18.00;8.43;;;2.40;99.90;;;3.25;100.00;98080.38;5018003;28;20578;-76
2022/03/13 01:45:34;;;;;;;14.63;8.33;;;2.50;99.90;;;3.22;100.00;98084.06;5019433;28;20463;-76
2022/03/13 01:48:07;;;;;;;16.33;8.67;;;2.50;99.90;;;3.24;100.00;98084.72;5017285;28;20542;-76
2022/03/13 01:50:38;;;;;;;14.00;7.70;;;2.50;99.90;;;3.16;100.00;98078.66;5018120;28;20497;-76
2022/03/13 01:53:09;;;;;;;13.00;7.80;;;2.50;99.90;;;3.17;100.00;98083.66;5018523;28;20493;-76
2022/03/13 01:55:40;;;;;;;14.53;8.83;;;2.30;99.90;;;3.16;100.00;98081.22;5020594;28;20539;-76
2022/03/13 01:58:14;;;;;;;17.50;8.97;;;2.30;99.90;;;3.07;100.00;98080.28;5011987;28;20729;-76
2022/03/13 02:03:24;;;;;;;16.47;9.07;;;2.20;99.90;;;3.07;100.00;98093.19;5527566;22;20500;-76
2022/03/13 02:05:54;;;;;;;11.70;8.03;;;2.30;99.90;;;3.07;100.00;98093.19;5052598;28;20547;-76
2022/03/13 02:08:25;;;;;;;31.83;9.47;;;2.20;99.90;;;3.08;100.00;98088.84;5057821;28;20502;-76
2022/03/13 02:10:56;;;;;;;13.30;7.73;;;2.20;99.90;;;3.01;100.00;98083.44;5058744;28;20507;-76
2022/03/13 02:13:27;;;;;;;17.23;8.80;;;2.10;99.90;;;2.98;100.00;98083.72;5057581;28;20825;-76
2022/03/13 02:15:56;;;;;;;15.67;8.13;;;2.00;99.90;;;2.91;100.00;98074.88;5057170;28;20472;-76
2022/03/13 02:18:27;;;;;;;13.40;8.07;;;1.90;99.90;;;2.88;100.00;98077.75;5058608;28;20548;-76
2022/03/13 02:20:57;;;;;;;16.93;8.60;;;1.90;99.90;;;2.86;100.00;98075.28;5059646;28;20477;-76
2022/03/13 02:23:31;;;;;;;14.97;8.40;;;1.90;99.90;;;2.88;100.00;98078.53;5058136;28;20888;-76
2022/03/13 02:26:04;;;;;;;12.10;8.40;;;2.00;99.90;;;2.84;100.00;98081.56;5057870;28;20532;-76
2022/03/13 02:28:36;;;;;;;14.80;8.63;;;2.10;99.90;;;2.76;100.00;98081.41;5058694;28;20498;-76
2022/03/13 02:31:13;;;;;;;14.60;7.53;;;2.10;99.90;;;2.76;100.00;98073.66;5051929;28;21003;-76
2022/03/13 02:33:43;;;;;;;13.47;7.57;;;2.00;99.90;;;2.77;100.00;98070.16;5057362;28;20517;-76
2022/03/13 02:36:34;;;;;;;16.90;8.60;;;1.90;99.90;;;2.78;100.00;98066.59;5059077;28;20517;-76
2022/03/13 02:39:07;;;;;;;9.50;6.93;;;1.90;99.90;;;2.69;100.00;98062.25;5057671;28;20477;-76
2022/03/13 02:41:40;;;;;;;12.00;7.70;;;1.90;99.90;;;2.72;100.00;98059.41;5059846;28;20460;-77
2022/03/13 02:44:14;;;;;;;13.67;8.30;;;1.80;99.90;;;2.77;100.00;98059.81;5056992;28;20472;-76
2022/03/13 02:47:03;;;;;;;14.70;7.90;;;1.90;99.90;;;2.78;100.00;98057.09;5059546;28;20553;-76
2022/03/13 02:49:34;;;;;;;13.20;8.47;;;2.00;99.90;;;2.81;100.00;98048.28;5059619;28;20916;-76
2022/03/13 02:52:07;;;;;;;14.97;8.03;;;1.90;99.90;;;2.80;100.00;98049.22;5058284;28;20471;-76
2022/03/13 02:54:38;;;;;;;19.70;10.07;;;1.90;99.90;;;2.82;100.00;98047.28;5059219;28;20979;-76
2022/03/13 02:57:08;;;;;;;16.13;8.90;;;2.00;99.90;;;2.82;100.00;98040.38;5058663;28;20469;-76
2022/03/13 02:59:38;;;;;;;12.90;8.07;;;2.10;99.90;;;2.83;100.00;98039.44;5061325;28;20468;-76
2022/03/13 03:02:08;;;;;;;16.27;7.60;;;2.10;99.90;;;2.87;100.00;98034.81;5058499;28;21111;-76
2022/03/13 03:04:39;;;;;;;15.30;8.23;;;2.10;99.90;;;2.90;100.00;98029.34;5057614;28;20971;-76
2022/03/13 03:07:09;;;;;;;17.60;8.23;;;2.10;99.90;;;2.95;100.00;98024.59;5057715;28;20611;-76
2022/03/13 03:09:40;;;;;;;13.13;8.20;;;2.10;99.90;;;2.99;100.00;98033.66;5050757;28;20484;-76
2022/03/13 03:12:11;;;;;;;16.67;8.30;;;2.10;99.90;;;2.94;100.00;98028.13;5057704;28;20471;-76
2022/03/13 03:14:41;;;;;;;12.80;7.50;;;2.10;99.90;;;2.96;100.00;98026.19;5058062;28;20517;-76
2022/03/13 03:17:11;;;;;;;17.93;8.90;;;2.10;99.90;;;2.96;100.00;98039.13;5057342;28;20460;-76
2022/03/13 03:19:41;;;;;;;13.37;8.20;;;2.20;99.90;;;2.97;100.00;98045.91;5057807;28;20987;-76
2022/03/13 03:22:15;;;;;;;13.40;7.77;;;2.20;99.90;;;2.97;100.00;98035.59;5057563;28;20452;-76
2022/03/13 03:24:48;;;;;;;13.50;7.90;;;2.30;99.90;;;2.98;100.00;98037.22;5058703;28;21472;-76
2022/03/13 03:27:18;;;;;;;12.20;7.70;;;2.30;99.90;;;2.98;100.00;98038.03;5057529;28;20531;-76
2022/03/13 03:29:48;;;;;;;13.07;7.73;;;2.30;99.90;;;2.95;100.00;98047.84;5061957;28;20975;-76
2022/03/13 03:32:18;;;;;;;16.73;7.83;;;2.30;99.90;;;2.97;100.00;98041.56;5063714;28;20440;-76
2022/03/13 03:34:47;;;;;;;13.77;8.00;;;2.20;99.90;;;3.01;100.00;98032.59;5063157;28;20562;-76
2022/03/13 03:37:17;;;;;;;10.03;6.97;;;2.30;99.90;;;3.02;100.00;98033.38;5063006;28;20456;-76
2022/03/13 03:39:48;;;;;;;13.07;7.47;;;2.30;99.90;;;2.90;100.00;98042.25;5063336;28;20451;-77
2022/03/13 03:42:17;;;;;;;12.83;7.50;;;2.30;99.90;;;2.87;100.00;98045.13;5063596;28;20438;-76
2022/03/13 03:44:47;;;;;;;13.70;7.97;;;2.30;99.90;;;2.92;100.00;98046.31;5061837;28;20498;-76
2022/03/13 03:47:17;;;;;;;10.90;7.13;;;2.20;99.90;;;2.95;100.00;98047.84;5060870;28;20814;-76
2022/03/13 03:49:47;;;;;;;15.00;7.70;;;2.00;99.90;;;2.90;100.00;98045.66;5059421;28;20486;-76
2022/03/13 03:52:17;;;;;;;10.27;7.10;;;2.20;99.90;;;2.80;100.00;98046.63;5059396;28;20464;-76
2022/03/13 03:54:49;;;;;;;10.47;6.60;;;2.00;99.90;;;2.82;100.00;98048.13;5059125;28;20463;-76
2022/03/13 03:57:19;;;;;;;12.33;7.50;;;2.10;99.90;;;2.76;100.00;98047.84;5061753;28;20471;-76
2022/03/13 03:59:49;;;;;;;14.00;7.60;;;2.10;99.90;;;2.74;100.00;98044.63;5063454;28;20822;-76
2022/03/13 04:02:19;;;;;;;24.63;9.10;;;2.00;99.90;;;2.69;100.00;98044.19;5062783;28;20464;-76
2022/03/13 04:04:49;;;;;;;17.60;8.70;;;2.00;99.90;;;2.64;100.00;98038.66;5061405;28;20461;-76
2022/03/13 04:07:19;;;;;;;20.57;9.40;;;2.00;99.90;;;2.56;100.00;98041.91;5059727;28;20841;-76
2022/03/13 04:09:50;;;;;;;15.17;7.83;;;1.90;99.90;;;2.56;100.00;98046.25;5060415;28;20995;-76
2022/03/13 04:12:20;;;;;;;16.60;8.40;;;1.90;99.90;;;2.51;100.00;98050.06;5060884;28;21033;-76
2022/03/13 04:14:49;;;;;;;17.03;8.13;;;1.80;99.90;;;2.53;100.00;98050.72;5058985;28;21023;-76
2022/03/13 04:17:19;;;;;;;17.53;8.20;;;1.60;99.90;;;2.53;100.00;98050.72;5059593;28;20471;-76
2022/03/13 04:19:48;;;;;;;12.83;8.27;;;1.70;99.90;;;2.51;100.00;98056.97;5059988;28;20457;-76
2022/03/13 04:22:18;;;;;;;14.30;7.60;;;1.70;99.90;;;2.49;100.00;98061.47;5060219;28;20457;-76
2022/03/13 04:24:49;;;;;;;14.90;7.03;;;1.70;99.90;;;2.51;100.00;98051.81;5060305;28;20460;-76
2022/03/13 04:27:19;;;;;;;12.10;7.10;;;1.80;99.90;;;2.54;100.00;98054.13;5058866;28;20883;-76
2022/03/13 04:29:50;;;;;;;11.33;7.23;;;1.70;99.90;;;2.54;100.00;98048.94;5059431;28;20496;-76
2022/03/13 04:32:22;;;;;;;12.10;6.93;;;1.70;99.90;;;2.62;100.00;98048.28;5058626;28;20549;-76
2022/03/13 04:34:52;;;;;;;16.73;9.00;;;1.80;99.90;;;2.62;100.00;98049.09;5058258;28;23847;-77
2022/03/13 04:37:22;;;;;;;11.10;6.90;;;1.80;99.90;;;2.67;100.00;98053.84;5059689;28;21155;-76
2022/03/13 04:39:54;;;;;;;16.00;7.50;;;1.80;99.90;;;2.71;100.00;98056.00;5059755;28;20554;-77
2022/03/13 04:42:24;;;;;;;10.73;7.13;;;1.80;99.90;;;2.75;100.00;98052.19;5059384;28;20556;-76
2022/03/13 04:44:54;;;;;;;9.90;6.60;;;1.90;99.90;;;2.80;100.00;98054.38;5061605;28;20463;-76
2022/03/13 04:47:30;;;;;;;17.43;9.00;;;2.00;99.90;;;2.82;100.00;98048.13;5060386;28;20833;-76
2022/03/13 04:50:22;;;;;;;23.73;10.40;;;2.00;99.90;;;2.83;100.00;98060.09;5060877;28;21006;-76
2022/03/13 04:52:52;;;;;;;17.30;8.80;;;2.00;99.90;;;2.82;100.00;98062.78;5059593;28;20473;-76
2022/03/13 04:55:27;;;;;;;16.97;8.13;;;2.00;99.90;;;2.83;100.00;98074.75;5058321;28;20464;-76
2022/03/13 04:57:57;;;;;;;15.10;7.80;;;2.10;99.90;;;2.84;100.00;98076.38;5058706;28;20463;-76
2022/03/13 05:00:31;;;;;;;28.90;9.97;;;2.10;99.90;;;2.89;100.00;98069.03;5056751;28;20460;-76
2022/03/13 05:03:03;;;;;;;21.93;9.40;;;2.20;99.90;;;2.88;100.00;98063.03;5057929;28;20488;-77
2022/03/13 05:05:35;;;;;;;16.33;7.50;;;2.20;99.90;;;2.90;100.00;98061.16;5058484;28;20484;-76
2022/03/13 05:08:13;;;;;;;19.17;8.57;;;2.20;99.90;;;2.95;100.00;98060.75;5058798;28;20464;-76
2022/03/13 05:10:48;;;;;;;16.50;8.50;;;2.20;99.90;;;2.99;100.00;98054.31;5058550;28;20468;-77
2022/03/13 05:13:22;;;;;;;22.97;8.90;;;2.20;99.90;;;3.02;100.00;98046.28;5056121;28;20517;-76
2022/03/13 05:15:55;;;;;;;58.27;12.57;;;2.20;99.90;;;2.98;100.00;98045.78;5057305;28;20472;-76
2022/03/13 05:18:29;;;;;;;21.07;9.80;;;2.20;99.90;;;3.02;100.00;98038.56;5056849;28;20488;-76
2022/03/13 05:20:59;;;;;;;19.37;9.30;;;2.20;99.90;;;3.04;100.00;98054.75;5058833;28;20459;-76
2022/03/13 05:23:27;;;;;;;21.70;8.90;;;2.30;99.90;;;3.01;100.00;98052.44;5056532;28;20476;-77
2022/03/13 05:25:58;;;;;;;15.43;8.30;;;2.30;99.90;;;3.02;100.00;98056.63;5056592;28;20545;-76
2022/03/13 05:28:28;;;;;;;25.07;9.70;;;2.40;99.90;;;3.02;100.00;98056.63;5059212;28;20488;-76
2022/03/13 05:30:58;;;;;;;25.33;9.60;;;2.50;99.90;;;3.07;100.00;98053.63;5060609;28;20457;-76
2022/03/13 05:33:30;;;;;;;25.70;9.67;;;2.40;99.90;;;3.09;100.00;98039.63;5061033;28;20441;-76
2022/03/13 05:36:01;;;;;;;22.73;10.23;;;2.50;99.90;;;3.12;100.00;98036.78;5056914;28;20470;-77
2022/03/13 05:38:34;;;;;;;18.47;8.57;;;2.40;99.90;;;3.15;100.00;98036.50;5056977;28;20470;-77
2022/03/13 05:41:06;;;;;;;19.80;8.30;;;2.40;99.90;;;3.13;100.00;98043.56;5058806;28;20501;-76
2022/03/13 05:43:39;;;;;;;20.73;8.67;;;2.40;99.90;;;3.14;100.00;98047.78;5055922;28;20456;-76
2022/03/13 05:46:09;;;;;;;18.33;8.07;;;2.40;99.90;;;3.10;100.00;98051.59;5057352;28;21034;-76
2022/03/13 05:48:39;;;;;;;16.67;8.07;;;2.40;99.90;;;3.13;100.00;98065.97;5058505;28;20467;-76
2022/03/13 05:51:10;;;;;;;20.03;10.03;;;2.40;99.90;;;3.18;100.00;98068.97;5059157;28;20498;-76
2022/03/13 05:53:40;;;;;;;21.53;8.67;;;2.50;99.90;;;3.23;100.00;98064.22;5057353;28;20458;-76
2022/03/13 05:56:12;;;;;;;16.10;8.30;;;2.50;99.90;;;3.23;100.00;98061.63;5055725;28;21188;-76
2022/03/13 05:58:41;;;;;;;15.40;8.13;;;2.50;99.90;;;3.24;100.00;98058.06;5056348;28;20470;-76
2022/03/13 06:01:12;;;;;;;16.07;7.83;;;2.50;99.90;;;3.25;100.00;98060.53;5054230;28;20494;-76
2022/03/13 06:03:47;;;;;;;15.70;7.07;;;2.50;99.90;;;3.25;100.00;98070.88;5056675;28;20512;-77
2022/03/13 06:06:17;;;;;;;17.33;7.90;;;2.50;99.90;;;3.22;100.00;98067.75;5055627;28;21261;-76
2022/03/13 06:08:47;;;;;;;16.93;8.20;;;2.50;99.90;;;3.25;100.00;98070.03;5054476;28;20454;-76
2022/03/13 06:11:18;;;;;;;15.83;8.53;;;2.50;99.90;;;3.25;100.00;98078.63;5057181;28;20473;-76
2022/03/13 06:13:49;;;;;;;17.07;7.77;;;2.50;99.90;;;3.23;100.00;98066.81;5056976;28;20458;-77
2022/03/13 06:16:21;;;;;;;12.77;7.73;;;2.50;99.90;;;3.23;100.00;98080.50;5056471;28;20464;-76
2022/03/13 06:18:51;;;;;;;15.97;9.03;;;2.60;99.90;;;3.22;100.00;98072.91;5056050;28;20552;-77
2022/03/13 06:21:21;;;;;;;19.10;9.43;;;2.60;99.90;;;3.19;100.00;98075.78;5055546;28;20476;-88
2022/03/13 06:23:51;;;;;;;21.60;10.10;;;2.60;99.90;;;3.20;100.00;98079.97;5055536;28;20541;-76
2022/03/13 06:26:22;;;;;;;16.70;8.43;;;2.50;99.90;;;3.25;100.00;98070.03;5055425;28;20505;-76
2022/03/13 06:28:52;;;;;;;15.33;8.23;;;2.50;99.90;;;3.28;100.00;98073.16;5049559;28;21009;-77
2022/03/13 06:31:23;;;;;;;17.97;8.20;;;2.60;99.90;;;3.29;100.00;98072.22;5050105;28;20493;-77
2022/03/13 06:33:57;;;;;;;18.87;9.67;;;2.60;99.90;;;3.34;100.00;98074.34;5055380;28;20457;-90
2022/03/13 06:36:29;;;;;;;16.10;9.43;;;2.70;99.90;;;3.30;100.00;98080.75;5052091;28;20975;-77
2022/03/13 06:38:59;;;;;;;19.80;9.63;;;2.70;99.90;;;3.29;100.00;98087.72;5053195;28;20473;-77
2022/03/13 06:41:31;;;;;;;16.10;9.20;;;2.60;99.90;;;3.33;100.00;98083.88;5054452;28;20549;-77
2022/03/13 06:44:01;;;;;;;15.53;8.70;;;2.60;99.90;;;3.35;100.00;98074.22;5053423;28;20588;-77
2022/03/13 06:46:32;;;;;;;12.33;8.10;;;2.70;99.90;;;3.40;100.00;98079.78;5056494;28;20477;-77
2022/03/13 06:49:03;;;;;;;18.20;8.83;;;2.70;99.90;;;3.43;100.00;98073.53;5056322;28;20479;-77
2022/03/13 06:51:34;;;;;;;14.00;8.07;;;2.70;99.90;;;3.39;100.00;98080.75;5038555;28;20854;-77
2022/03/13 06:54:04;;;;;;;16.10;7.53;;;2.70;99.90;;;3.43;100.00;98084.69;5055299;28;20466;-77
2022/03/13 06:56:38;;;;;;;15.27;8.70;;;2.70;99.90;;;3.46;100.00;98088.75;5055512;28;20465;-78
2022/03/13 06:59:10;;;;;;;18.43;7.70;;;2.70;99.90;;;3.51;100.00;98092.53;5056707;28;20467;-77
2022/03/13 07:01:40;;;;;;;15.60;8.07;;;2.70;99.90;;;3.54;100.00;98081.91;5055644;28;20486;-77
2022/03/13 07:04:14;;;;;;;17.47;9.30;;;2.80;99.90;;;3.59;100.00;98075.50;5056999;28;21002;-76
2022/03/13 07:06:45;;;;;;;15.17;9.10;;;2.80;99.90;;;3.62;100.00;98070.03;5059954;28;20466;-84
2022/03/13 07:09:14;;;;;;;14.47;8.40;;;2.80;99.90;;;3.61;100.00;98078.78;5040609;28;20465;-76
2022/03/13 07:11:49;;;;;;;16.77;8.10;;;2.90;99.90;;;3.65;100.00;98083.50;5059081;28;20511;-76
2022/03/13 07:17:04;;;;;;;15.20;8.20;;;3.00;99.90;;;3.77;100.00;98076.38;5055010;28;20803;-77
2022/03/13 07:19:34;;;;;;;18.70;9.17;;;2.90;99.90;;;3.82;100.00;98079.31;5061147;28;20995;-76
2022/03/13 07:22:06;;;;;;;16.53;9.00;;;3.00;99.90;;;3.87;100.00;98082.31;5060654;28;20941;-77
2022/03/13 07:24:36;;;;;;;18.00;8.47;;;3.10;99.90;;;3.92;100.00;98070.56;5060733;28;20469;-77
2022/03/13 07:27:08;;;;;;;19.33;8.20;;;3.20;99.90;;;3.98;100.00;98075.19;5058812;28;20600;-77
2022/03/13 07:29:38;;;;;;;12.27;7.87;;;3.20;99.90;;;4.02;100.00;98073.94;5061071;28;20465;-77
2022/03/13 07:32:10;;;;;;;14.97;8.23;;;3.20;99.90;;;4.07;100.00;98078.66;5061700;28;20500;-76
2022/03/13 07:34:41;;;;;;;14.37;8.63;;;3.20;99.90;;;4.12;100.00;98076.47;5060583;28;20896;-77
2022/03/13 07:37:12;;;;;;;17.30;9.20;;;3.40;99.90;;;4.17;100.00;98073.41;5058874;28;20556;-76
2022/03/13 07:39:43;;;;;;;13.57;7.70;;;3.50;99.90;;;4.22;100.00;98069.44;5057475;28;20468;-87
2022/03/13 07:42:16;;;;;;;13.57;7.90;;;3.50;99.90;;;4.29;100.00;98078.25;5040000;28;20516;-76
2022/03/13 07:44:46;;;;;;;13.80;8.13;;;3.60;99.90;;;4.36;100.00;98074.13;5043788;28;20551;-76
2022/03/13 07:47:16;;;;;;;12.83;7.67;;;3.60;99.90;;;4.43;100.00;98080.31;5061625;28;20531;-76
2022/03/13 07:49:46;;;;;;;15.70;9.03;;;3.60;99.90;;;4.50;100.00;98075.38;5044567;28;20967;-76
2022/03/13 07:52:17;;;;;;;14.63;7.93;;;3.70;99.90;;;4.59;100.00;98077.06;5062165;28;20456;-76
2022/03/13 07:54:45;;;;;;;12.47;8.70;;;3.80;99.90;;;4.68;100.00;98078.78;5061324;28;20847;-76
2022/03/13 07:57:17;;;;;;;19.63;7.97;;;3.90;99.90;;;4.75;100.00;98068.63;5062829;28;20457;-76
2022/03/13 07:59:48;;;;;;;12.50;8.10;;;4.00;99.90;;;4.85;100.00;98070.16;5062552;28;20446;-76
2022/03/13 08:02:18;;;;;;;16.37;8.80;;;4.10;99.90;;;4.93;100.00;98071.97;5060254;28;20491;-76
2022/03/13 08:04:47;;;;;;;17.17;8.10;;;4.20;99.90;;;5.00;100.00;98073.81;5062889;28;20440;-76
2022/03/13 08:07:17;;;;;;;11.20;7.00;;;4.40;99.90;;;5.08;100.00;98075.66;5058923;28;20461;-77
2022/03/13 08:09:47;;;;;;;13.10;6.87;;;4.50;99.90;;;5.15;96.98;98071.50;5056487;28;20465;-76
2022/03/13 08:12:19;;;;;;;13.80;7.63;;;4.50;98.40;;;5.23;95.82;98061.19;5056632;28;20553;-77
2022/03/13 08:14:50;;;;;;;11.40;6.70;;;4.60;98.90;;;5.29;92.33;98057.97;5053828;28;20466;-77
2022/03/13 08:17:19;;;;;;;10.83;7.37;;;4.70;98.00;;;5.35;89.23;98062.53;5058991;28;20484;-77
2022/03/13 08:19:48;;;;;;;12.47;6.80;;;4.80;97.30;;;5.41;85.00;98067.13;5057694;28;20498;-76
2022/03/13 08:22:19;;;;;;;13.80;7.67;;;4.90;96.80;;;5.45;83.97;98072.81;5056032;28;20807;-77
2022/03/13 08:24:48;;;;;;;13.30;7.33;;;4.90;94.90;;;5.53;84.57;98068.47;5056355;28;20895;-77
2022/03/13 08:27:19;;;;;;;14.40;7.70;;;4.90;96.00;;;5.57;82.54;98074.19;5056575;28;20953;-77
2022/03/13 08:29:49;;;;;;;11.87;7.20;;;5.00;96.20;;;5.62;82.53;98068.53;5056633;28;20973;-77
2022/03/13 08:32:19;;;;;;;11.77;7.60;;;5.00;94.80;;;5.68;81.98;98071.31;4953783;28;20538;-77
2022/03/13 08:34:52;;;;;;;11.70;7.03;;;5.00;95.60;;;5.73;80.42;98065.63;4996449;28;20466;-78
2022/03/13 08:37:23;;;;;;;86.23;34.73;;;5.10;95.80;;;5.77;79.90;98064.38;4992206;28;20470;-77
2022/03/13 08:39:53;;;;;;;22.93;10.00;;;5.10;94.60;;;5.81;80.21;98074.28;4994593;28;20469;-77
2022/03/13 08:42:30;;;;;;;10.80;6.83;;;5.10;95.30;;;5.86;78.77;98077.25;4993851;28;20474;-77
2022/03/13 08:45:00;;;;;;;20.70;6.97;;;5.20;94.10;;;5.91;77.87;98069.00;4993872;28;20474;-77
2022/03/13 08:47:29;;;;;;;15.90;7.07;;;5.20;93.50;;;5.94;77.10;98066.91;4993856;28;20481;-77
2022/03/13 08:49:58;;;;;;;12.77;6.87;;;5.20;94.00;;;5.99;74.41;98067.25;4995498;28;20773;-77
2022/03/13 08:52:28;;;;;;;14.00;7.23;;;5.30;93.80;;;6.03;72.00;98062.56;4995641;28;20525;-77
2022/03/13 08:54:57;;;;;;;12.80;7.37;;;5.40;93.40;;;6.06;72.17;98060.47;4995288;28;20875;-77
2022/03/13 08:57:32;;;;;;;15.23;7.97;;;5.40;92.80;;;6.11;70.83;98059.97;4997507;28;20479;-77
2022/03/13 09:00:04;;;;;;;13.67;8.20;;;5.40;92.40;;;6.16;69.97;98057.72;4996367;28;20543;-77
2022/03/13 09:02:35;;;;;;;12.23;7.30;;;5.40;92.20;;;6.21;69.31;98052.88;4997050;28;20503;-77
2022/03/13 09:05:05;;;;;;;15.53;7.03;;;5.50;93.00;;;6.27;68.03;98041.84;5018903;28;20545;-77
2022/03/13 09:07:35;;;;;;;25.43;8.07;;;5.70;92.70;;;6.31;67.14;98042.34;5019252;28;20517;-77
2022/03/13 09:10:07;;;;;;;10.17;6.57;;;5.80;92.50;;;6.33;66.79;98046.38;5021002;28;21135;-77
2022/03/13 09:12:39;;;;;;;14.10;6.80;;;5.80;92.20;;;6.40;65.93;98043.97;5020084;28;20497;-77
2022/03/13 10:19:54;;;;;;;13.30;8.07;;;7.30;91.50;;;8.04;61.92;98003.44;4920502;29;20523;-75
2022/03/13 10:23:03;;;;;;;12.80;8.50;;;7.40;91.50;;;8.10;61.20;97994.91;5834700;23;21394;-72
2022/03/13 10:25:35;;;;;;;13.97;7.67;;;7.50;91.60;;;8.16;61.91;97996.81;4907049;29;21032;-73
2022/03/13 10:28:22;;;;;;;13.87;8.87;;;7.60;91.60;;;8.20;61.37;97998.09;4906855;29;20478;-73
2022/03/13 10:31:13;;;;;;;13.00;8.50;;;7.70;91.40;;;8.27;61.63;98001.66;4908884;29;20480;-72
2022/03/13 10:34:02;;;;;;;13.80;7.33;;;7.70;91.40;;;8.33;61.25;97998.38;4925539;29;20501;-72
2022/03/13 10:36:35;;;;;;;19.03;7.87;;;7.80;91.20;;;8.38;61.69;97998.66;4928182;29;20462;-72
2022/03/13 10:39:17;;;;;;;11.90;8.00;;;7.80;91.70;;;8.43;61.56;97991.16;4924874;29;20469;-73
2022/03/13 10:41:47;;;;;;;15.73;8.73;;;7.90;91.80;;;8.49;61.36;98000.06;4969710;23;20548;-78
2022/03/13 10:44:21;;;;;;;17.70;8.50;;;7.90;91.50;;;8.54;60.91;97993.31;4962855;28;20464;-78
2022/03/13 10:46:56;;;;;;;15.47;8.90;;;8.00;91.40;;;8.59;60.31;97991.00;4970866;28;20519;-78
2022/03/13 11:39:40;;;;;;;21.13;8.73;;;9.10;91.30;;;9.69;59.66;97952.00;5672986;23;21257;-74
2022/03/13 11:42:24;;;;;;;14.90;8.97;;;9.20;91.50;;;9.76;59.46;97950.25;4964353;28;20470;-74
2022/03/13 11:44:53;;;;;;;18.00;8.70;;;9.30;91.30;;;9.99;58.25;97945.72;4963647;28;20475;-75
2022/03/13 11:47:33;;;;;;;18.90;8.50;;;9.70;90.90;;;10.09;58.45;97941.00;4971122;28;20559;-74
2022/03/13 11:50:02;;;;;;;15.17;9.30;;;9.60;91.00;;;10.17;57.82;97940.09;4967011;28;20503;-74
2022/03/13 11:52:32;;;;;;;18.03;9.67;;;9.70;90.90;;;10.20;58.41;97937.09;4968253;28;20536;-74
2022/03/13 11:55:04;;;;;;;16.67;10.40;;;9.70;91.20;;;10.27;58.39;97936.16;4987569;23;20538;-68
2022/03/13 11:57:45;;;;;;;19.10;10.20;;;9.80;91.20;;;10.32;58.92;97938.19;4984159;28;20506;-77
2022/03/13 12:00:34;;;;;;;23.23;10.50;;;9.80;91.50;;;10.37;59.12;97926.19;4983034;28;20529;-77
2022/03/13 12:03:14;;;;;;;22.60;10.20;;;10.00;91.00;;;10.47;60.26;97926.69;4983649;28;20461;-77
2022/03/13 12:05:52;;;;;;;17.27;10.07;;;10.10;91.30;;;10.55;59.96;97913.47;4986519;28;20480;-77
2022/03/13 12:08:23;;;;;;;16.27;9.67;;;10.10;91.30;;;10.63;59.77;97916.94;4986197;28;20463;-77
2022/03/13 12:10:54;;;;;;;14.90;9.70;;;10.20;91.30;;;10.68;60.26;97918.00;4985654;28;20463;-77
2022/03/13 12:13:23;;;;;;;20.20;10.70;;;10.30;91.30;;;10.75;59.57;97910.19;4984051;28;20475;-77
2022/03/13 12:15:55;;;;;;;18.47;10.00;;;10.30;91.10;;;10.81;59.57;97914.66;4985665;28;20499;-64
2022/03/13 12:18:28;;;;;;;23.87;11.37;;;10.40;91.10;;;10.90;59.65;97909.06;4984742;28;20458;-77
2022/03/13 12:21:07;;;;;;;19.40;11.47;;;10.40;91.20;;;10.98;59.27;97908.91;4985221;28;20462;-77
2022/03/13 12:23:39;;;;;;;16.27;8.47;;;10.50;91.10;;;11.04;59.13;97910.75;4987694;28;20463;-78
2022/03/13 12:29:01;;;;;;;16.70;9.57;;;10.70;91.40;;;11.20;58.91;97912.25;4929379;28;20499;-78
2022/03/13 12:31:38;;;;;;;20.07;9.47;;;10.80;91.10;;;11.23;59.31;97909.25;4925339;29;20855;-78
2022/03/13 12:34:10;;;;;;;15.50;8.70;;;10.70;91.10;;;11.28;58.88;97899.00;4922730;29;20466;-79
2022/03/13 12:36:42;;;;;;;14.83;9.47;;;10.80;91.10;;;11.31;59.04;97908.28;4925245;29;20521;-78
2022/03/13 12:39:16;;;;;;;23.63;11.10;;;10.90;91.20;;;11.33;59.04;97899.22;4924330;29;20446;-78
2022/03/13 12:41:56;;;;;;;16.97;9.53;;;10.90;91.10;;;11.37;59.03;97894.41;4941680;23;21557;-69